sensor_id;sensor_type;location;lat;lon;timestamp;pressure;altitude;pressure_sealevel;temperature;humidity
53514;BME280;39768;54.148;12.174;2023-11-19T00:00:20;101219.97;;;4.55;77.16
53514;BME280;39768;54.148;12.174;2023-11-19T00:04:22;101187.13;;;5.02;76.85
53514;BME280;39768;54.148;12.174;2023-11-19T00:08:24;101166.69;;;5.27;75.45
53514;BME280;39768;54.148;12.174;2023-11-19T00:24:06;101126.31;;;4.56;78.66
53514;BME280;39768;54.148;12.174;2023-11-19T00:28:07;101135.13;;;4.66;79.61
53514;BME280;39768;54.148;12.174;2023-11-19T00:32:10;101136.97;;;4.48;80.04
53514;BME280;39768;54.148;12.174;2023-11-19T00:36:11;101121.97;;;4.37;81.83
53514;BME280;39768;54.148;12.174;2023-11-19T00:40:13;101102.41;;;4.71;80.11
53514;BME280;39768;54.148;12.174;2023-11-19T00:44:17;101081.13;;;4.89;78.69
53514;BME280;39768;54.148;12.174;2023-11-19T00:48:19;101060.06;;;4.50;81.99
53514;BME280;39768;54.148;12.174;2023-11-19T00:52:21;101058.22;;;4.72;80.70
53514;BME280;39768;54.148;12.174;2023-11-19T00:56:23;101030.81;;;4.73;81.53
53514;BME280;39768;54.148;12.174;2023-11-19T01:00:25;101021.19;;;4.63;82.73
53514;BME280;39768;54.148;12.174;2023-11-19T01:04:35;101015.50;;;5.17;82.27
53514;BME280;39768;54.148;12.174;2023-11-19T01:08:37;100991.00;;;4.82;81.43
53514;BME280;39768;54.148;12.174;2023-11-19T01:12:39;100983.59;;;5.27;81.14
53514;BME280;39768;54.148;12.174;2023-11-19T01:16:40;100970.63;;;4.87;84.18
53514;BME280;39768;54.148;12.174;2023-11-19T01:20:42;100955.63;;;4.81;85.47
53514;BME280;39768;54.148;12.174;2023-11-19T01:24:43;100962.69;;;4.84;84.93
53514;BME280;39768;54.148;12.174;2023-11-19T01:28:45;100965.53;;;4.61;89.85
53514;BME280;39768;54.148;12.174;2023-11-19T01:32:50;100955.94;;;4.36;89.91
53514;BME280;39768;54.148;12.174;2023-11-19T01:36:52;100939.09;;;4.47;90.05
53514;BME280;39768;54.148;12.174;2023-11-19T01:40:57;100942.44;;;4.75;86.16
53514;BME280;39768;54.148;12.174;2023-11-19T01:44:59;100937.56;;;4.04;92.00
53514;BME280;39768;54.148;12.174;2023-11-19T01:49:02;100919.69;;;4.45;91.32
53514;BME280;39768;54.148;12.174;2023-11-19T01:53:04;100894.25;;;4.14;90.24
53514;BME280;39768;54.148;12.174;2023-11-19T01:57:05;100872.88;;;4.41;91.77
53514;BME280;39768;54.148;12.174;2023-11-19T02:01:07;100871.19;;;4.31;90.28
53514;BME280;39768;54.148;12.174;2023-11-19T02:05:12;100850.00;;;4.31;91.87
53514;BME280;39768;54.148;12.174;2023-11-19T02:09:14;100834.50;;;4.93;89.07
53514;BME280;39768;54.148;12.174;2023-11-19T02:13:16;100810.81;;;4.71;89.95
53514;BME280;39768;54.148;12.174;2023-11-19T02:17:45;100804.19;;;5.15;87.12
53514;BME280;39768;54.148;12.174;2023-11-19T02:22:21;100789.88;;;4.42;90.83
53514;BME280;39768;54.148;12.174;2023-11-19T02:30:28;100774.97;;;4.31;92.08
53514;BME280;39768;54.148;12.174;2023-11-19T02:34:30;100758.94;;;4.46;90.72
53514;BME280;39768;54.148;12.174;2023-11-19T02:38:33;100736.97;;;4.33;91.69
53514;BME280;39768;54.148;12.174;2023-11-19T02:42:35;100715.56;;;4.51;92.46
53514;BME280;39768;54.148;12.174;2023-11-19T02:46:37;100700.19;;;4.85;87.81
53514;BME280;39768;54.148;12.174;2023-11-19T02:50:39;100687.97;;;4.75;88.98
53514;BME280;39768;54.148;12.174;2023-11-19T02:54:42;100687.66;;;4.17;92.77
53514;BME280;39768;54.148;12.174;2023-11-19T02:58:44;100667.13;;;4.40;95.01
53514;BME280;39768;54.148;12.174;2023-11-19T03:02:46;100658.13;;;5.30;89.02
53514;BME280;39768;54.148;12.174;2023-11-19T03:06:49;100651.88;;;4.64;93.77
53514;BME280;39768;54.148;12.174;2023-11-19T03:10:50;100650.38;;;4.38;94.45
53514;BME280;39768;54.148;12.174;2023-11-19T03:14:52;100634.59;;;5.03;90.92
53514;BME280;39768;54.148;12.174;2023-11-19T03:18:54;100619.53;;;4.33;95.47
53514;BME280;39768;54.148;12.174;2023-11-19T03:22:56;100616.19;;;4.92;93.29
53514;BME280;39768;54.148;12.174;2023-11-19T03:26:59;100618.31;;;4.63;93.61
53514;BME280;39768;54.148;12.174;2023-11-19T03:31:00;100611.63;;;5.00;91.63
53514;BME280;39768;54.148;12.174;2023-11-19T03:35:02;100605.00;;;4.66;92.54
53514;BME280;39768;54.148;12.174;2023-11-19T03:39:05;100607.13;;;5.08;90.83
53514;BME280;39768;54.148;12.174;2023-11-19T03:43:07;100583.13;;;5.14;90.80
53514;BME280;39768;54.148;12.174;2023-11-19T03:47:09;100575.81;;;4.69;94.26
53514;BME280;39768;54.148;12.174;2023-11-19T03:51:10;100561.34;;;4.94;93.05
53514;BME280;39768;54.148;12.174;2023-11-19T03:55:16;100566.94;;;4.71;92.66
53514;BME280;39768;54.148;12.174;2023-11-19T03:59:18;100555.41;;;5.38;90.55
53514;BME280;39768;54.148;12.174;2023-11-19T04:03:21;100544.34;;;5.09;92.60
53514;BME280;39768;54.148;12.174;2023-11-19T04:07:23;100532.69;;;5.20;92.23
53514;BME280;39768;54.148;12.174;2023-11-19T04:11:35;100530.44;;;4.24;97.30
53514;BME280;39768;54.148;12.174;2023-11-19T04:16:49;100511.22;;;5.36;93.75
53514;BME280;39768;54.148;12.174;2023-11-19T04:20:51;100499.00;;;5.25;91.10
53514;BME280;39768;54.148;12.174;2023-11-19T04:24:52;100494.28;;;4.87;95.46
53514;BME280;39768;54.148;12.174;2023-11-19T04:28:54;100481.56;;;4.49;100.00
53514;BME280;39768;54.148;12.174;2023-11-19T04:32:55;100469.75;;;4.72;100.00
53514;BME280;39768;54.148;12.174;2023-11-19T04:36:57;100455.28;;;4.94;97.10
53514;BME280;39768;54.148;12.174;2023-11-19T04:41:12;100450.53;;;5.14;95.87
53514;BME280;39768;54.148;12.174;2023-11-19T04:45:15;100434.25;;;5.37;94.42
53514;BME280;39768;54.148;12.174;2023-11-19T04:49:17;100428.53;;;4.51;97.91
53514;BME280;39768;54.148;12.174;2023-11-19T04:53:19;100453.34;;;4.47;98.29
53514;BME280;39768;54.148;12.174;2023-11-19T04:57:21;100464.81;;;4.49;99.95
53514;BME280;39768;54.148;12.174;2023-11-19T05:01:22;100431.97;;;5.13;95.00
53514;BME280;39768;54.148;12.174;2023-11-19T05:05:24;100403.63;;;5.67;91.01
53514;BME280;39768;54.148;12.174;2023-11-19T05:09:26;100394.16;;;5.02;94.00
53514;BME280;39768;54.148;12.174;2023-11-19T05:13:27;100396.84;;;5.51;92.49
53514;BME280;39768;54.148;12.174;2023-11-19T05:17:29;100392.25;;;5.10;93.71
53514;BME280;39768;54.148;12.174;2023-11-19T05:21:32;100396.19;;;4.86;97.00
53514;BME280;39768;54.148;12.174;2023-11-19T05:25:33;100391.50;;;5.02;95.51
53514;BME280;39768;54.148;12.174;2023-11-19T05:29:35;100390.22;;;5.25;96.02
53514;BME280;39768;54.148;12.174;2023-11-19T05:33:36;100392.38;;;5.02;97.36
53514;BME280;39768;54.148;12.174;2023-11-19T05:37:38;100336.44;;;5.16;97.11
53514;BME280;39768;54.148;12.174;2023-11-19T05:41:40;100329.16;;;5.29;94.07
53514;BME280;39768;54.148;12.174;2023-11-19T05:45:41;100339.38;;;5.01;98.40
53514;BME280;39768;54.148;12.174;2023-11-19T05:49:43;100362.59;;;4.86;98.87
53514;BME280;39768;54.148;12.174;2023-11-19T05:53:45;100369.47;;;5.49;94.79
53514;BME280;39768;54.148;12.174;2023-11-19T05:57:47;100369.09;;;5.22;95.56
53514;BME280;39768;54.148;12.174;2023-11-19T06:01:49;100329.94;;;4.84;95.61
53514;BME280;39768;54.148;12.174;2023-11-19T06:05:50;100273.13;;;4.99;94.97
53514;BME280;39768;54.148;12.174;2023-11-19T06:09:52;100283.09;;;5.34;96.26
53514;BME280;39768;54.148;12.174;2023-11-19T06:13:53;100302.94;;;5.10;96.40
53514;BME280;39768;54.148;12.174;2023-11-19T06:17:55;100320.06;;;4.42;99.56
53514;BME280;39768;54.148;12.174;2023-11-19T06:22:26;100309.66;;;4.82;96.89
53514;BME280;39768;54.148;12.174;2023-11-19T06:52:06;100280.06;;;5.06;100.00
53514;BME280;39768;54.148;12.174;2023-11-19T06:56:34;100303.09;;;5.50;97.66
53514;BME280;39768;54.148;12.174;2023-11-19T07:14:29;100296.00;;;5.05;97.12
53514;BME280;39768;54.148;12.174;2023-11-19T07:18:30;100268.94;;;4.86;98.91
53514;BME280;39768;54.148;12.174;2023-11-19T07:33:08;100246.16;;;4.25;100.00
53514;BME280;39768;54.148;12.174;2023-11-19T07:38:08;100239.00;;;4.79;99.77
53514;BME280;39768;54.148;12.174;2023-11-19T07:42:31;100240.75;;;5.28;97.34
53514;BME280;39768;54.148;12.174;2023-11-19T07:46:33;100218.97;;;5.09;98.21
53514;BME280;39768;54.148;12.174;2023-11-19T07:50:34;100230.31;;;5.20;98.48
53514;BME280;39768;54.148;12.174;2023-11-19T07:54:36;100211.13;;;5.06;99.93
53514;BME280;39768;54.148;12.174;2023-11-19T07:58:37;100205.13;;;4.95;100.00
53514;BME280;39768;54.148;12.174;2023-11-19T08:02:39;100196.81;;;5.55;97.85
53514;BME280;39768;54.148;12.174;2023-11-19T08:06:41;100163.28;;;5.09;95.56
53514;BME280;39768;54.148;12.174;2023-11-19T08:15:20;100153.34;;;5.22;100.00
53514;BME280;39768;54.148;12.174;2023-11-19T08:19:25;100148.03;;;4.79;100.00
53514;BME280;39768;54.148;12.174;2023-11-19T08:23:29;100155.78;;;5.33;100.00
53514;BME280;39768;54.148;12.174;2023-11-19T08:27:31;100135.19;;;5.42;96.62
53514;BME280;39768;54.148;12.174;2023-11-19T08:31:32;100145.13;;;5.71;97.16
53514;BME280;39768;54.148;12.174;2023-11-19T08:35:34;100159.13;;;4.98;98.30
53514;BME280;39768;54.148;12.174;2023-11-19T08:39:35;100139.72;;;4.96;100.00
53514;BME280;39768;54.148;12.174;2023-11-19T08:43:39;100136.66;;;5.92;98.74
53514;BME280;39768;54.148;12.174;2023-11-19T08:47:41;100126.31;;;5.03;100.00
53514;BME280;39768;54.148;12.174;2023-11-19T08:51:43;100122.88;;;5.77;98.87
53514;BME280;39768;54.148;12.174;2023-11-19T08:55:44;100120.59;;;5.62;100.00
53514;BME280;39768;54.148;12.174;2023-11-19T08:59:49;100123.94;;;5.33;100.00
53514;BME280;39768;54.148;12.174;2023-11-19T09:03:51;100109.38;;;5.86;100.00
53514;BME280;39768;54.148;12.174;2023-11-19T09:07:52;100113.31;;;5.70;100.00
53514;BME280;39768;54.148;12.174;2023-11-19T09:11:54;100116.53;;;5.47;100.00
53514;BME280;39768;54.148;12.174;2023-11-19T09:15:56;100126.06;;;5.54;100.00
53514;BME280;39768;54.148;12.174;2023-11-19T09:20:01;100129.66;;;5.53;100.00
53514;BME280;39768;54.148;12.174;2023-11-19T09:24:03;100121.34;;;5.30;100.00
53514;BME280;39768;54.148;12.174;2023-11-19T09:28:04;100113.91;;;5.82;100.00
53514;BME280;39768;54.148;12.174;2023-11-19T10:35:56;100068.31;;;8.30;95.32
53514;BME280;39768;54.148;12.174;2023-11-19T10:49:26;100060.56;;;8.22;98.50
53514;BME280;39768;54.148;12.174;2023-11-19T10:53:28;100044.22;;;8.33;100.00
53514;BME280;39768;54.148;12.174;2023-11-19T10:57:32;100048.09;;;8.49;100.00
53514;BME280;39768;54.148;12.174;2023-11-19T11:01:45;100049.56;;;8.33;100.00
53514;BME280;39768;54.148;12.174;2023-11-19T11:05:48;100050.84;;;8.46;100.00
53514;BME280;39768;54.148;12.174;2023-11-19T11:09:51;100051.69;;;8.95;100.00
53514;BME280;39768;54.148;12.174;2023-11-19T11:13:53;100048.22;;;8.93;100.00
53514;BME280;39768;54.148;12.174;2023-11-19T11:17:59;100049.16;;;9.13;100.00
53514;BME280;39768;54.148;12.174;2023-11-19T11:22:05;100042.00;;;9.59;100.00
53514;BME280;39768;54.148;12.174;2023-11-19T11:30:55;100041.63;;;9.46;100.00
53514;BME280;39768;54.148;12.174;2023-11-19T11:35:21;100043.84;;;10.20;100.00
53514;BME280;39768;54.148;12.174;2023-11-19T11:39:28;100056.31;;;10.80;99.17
53514;BME280;39768;54.148;12.174;2023-11-19T11:43:50;100052.06;;;10.95;100.00
53514;BME280;39768;54.148;12.174;2023-11-19T16:59:21;100158.41;;;11.49;91.71
53514;BME280;39768;54.148;12.174;2023-11-19T17:03:23;100155.50;;;11.53;90.56
53514;BME280;39768;54.148;12.174;2023-11-19T17:07:25;100160.72;;;11.56;90.73
53514;BME280;39768;54.148;12.174;2023-11-19T17:11:26;100159.94;;;11.54;88.44
53514;BME280;39768;54.148;12.174;2023-11-19T17:15:28;100165.34;;;11.34;89.19
53514;BME280;39768;54.148;12.174;2023-11-19T17:19:29;100175.53;;;11.07;92.10
53514;BME280;39768;54.148;12.174;2023-11-19T22:29:13;100262.06;;;11.08;90.91
53514;BME280;39768;54.148;12.174;2023-11-19T23:59:27;100268.22;;;11.30;87.67
